Time,TemperatureF,DewpointF,PressureIn,WindDirection,WindDirectionDegrees,WindSpeedMPH,WindSpeedGustMPH,Humidity,HourlyPrecipIn,Conditions,Clouds,dailyrainin,SolarRadiationWatts/m^2,SoftwareType,DateUTC
2013-07-07 00:00:00,52.4,48.9,29.77,South,187,1.1,3.5,88,0.00,,,0.00,0.0,WeatherDisplay:10.37,2013-07-07 07:00:00,
2013-07-07 00:05:00,52.5,49.0,29.77,SSE,161,5.8,5.8,88,0.00,,,0.00,0.0,WeatherDisplay:10.37,2013-07-07 07:05:00,
2013-07-07 00:10:00,52.5,49.0,29.77,South,180,4.4,6.9,88,0.00,,,0.00,0.0,WeatherDisplay:10.37,2013-07-07 07:10:00,
2013-07-07 00:15:00,52.4,48.9,29.77,SSW,192,0.3,5.8,88,0.00,,,0.00,0.0,WeatherDisplay:10.37,2013-07-07 07:15:00,
2013-07-07 00:20:00,52.4,48.9,29.77,SSW,194,3.8,5.8,88,0.00,,,0.00,0.0,WeatherDisplay:10.37,2013-07-07 07:20:00,
2013-07-07 00:25:00,52.4,48.9,29.77,South,191,0.1,1.2,88,0.00,,,0.00,0.0,WeatherDisplay:10.37,2013-07-07 07:25:00,
2013-07-07 00:30:00,52.4,48.9,29.77,SSW,192,2.1,3.5,88,0.00,,,0.00,0.0,WeatherDisplay:10.37,2013-07-07 07:30:00,
2013-07-07 00:35:00,52.4,48.9,29.77,SW,227,2.6,3.5,88,0.00,,,0.00,0.0,WeatherDisplay:10.37,2013-07-07 07:35:00,
2013-07-07 00:40:00,52.5,49.0,29.77,South,179,3.9,6.9,88,0.00,,,0.00,0.0,WeatherDisplay:10.37,2013-07-07 07:40:00,
2013-07-07 00:45:00,52.6,49.1,29.77,West,273,3.8,3.8,88,0.00,,,0.00,0.0,WeatherDisplay:10.37,2013-07-07 07:45:00,
2013-07-07 00:50:00,52.5,49.0,29.77,WSW,250,1.8,3.5,88,0.00,,,0.00,0.0,WeatherDisplay:10.37,2013-07-07 07:50:00,
2013-07-07 00:55:00,52.6,49.4,29.77,South,182,0.7,3.5,89,0.00,,,0.00,0.0,WeatherDisplay:10.37,2013-07-07 07:55:00,
2013-07-07 01:00:00,52.5,49.4,29.77,SSE,149,1.3,2.3,89,0.00,,,0.00,0.0,WeatherDisplay:10.37,2013-07-07 08:00:00,
2013-07-07 01:05:00,52.6,49.4,29.77,South,188,2.4,2.4,89,0.00,,,0.00,0.0,WeatherDisplay:10.37,2013-07-07 08:05:00,
2013-07-07 01:10:00,52.6,49.4,29.77,South,180,4.5,6.9,89,0.00,,,0.00,0.0,WeatherDisplay:10.37,2013-07-07 08:10:00,
2013-07-07 01:15:00,52.8,49.6,29.77,SSW,196,2.7,6.9,89,0.00,,,0.00,0.0,WeatherDisplay:10.37,2013-07-07 08:15:00,
2013-07-07 01:20:00,52.9,49.7,29.77,SSW,192,5.5,7.0,89,0.00,,,0.00,0.0,WeatherDisplay:10.37,2013-07-07 08:20:00,
2013-07-07 01:25:00,52.9,49.7,29.77,South,188,4.7,5.8,89,0.00,,,0.00,0.0,WeatherDisplay:10.37,2013-07-07 08:25:00,
2013-07-07 01:30:00,52.9,49.7,29.77,South,178,4.3,4.3,89,0.00,,,0.00,0.0,WeatherDisplay:10.37,2013-07-07 08:30:00,
2013-07-07 01:36:00,52.8,49.7,29.77,South,191,2.0,10.0,89,0.00,,,0.00,0.0,WeatherDisplay:10.37,2013-07-07 08:36:00,
2013-07-07 01:41:00,52.8,49.6,29.77,SSW,195,1.2,2.3,89,0.00,,,0.00,0.0,WeatherDisplay:10.37,2013-07-07 08:41:00,
2013-07-07 01:46:00,52.8,49.6,29.77,South,175,3.6,6.9,89,0.00,,,0.00,0.0,WeatherDisplay:10.37,2013-07-07 08:46:00,
2013-07-07 01:51:00,52.8,49.6,29.77,South,173,2.0,5.8,89,0.00,,,0.00,0.0,WeatherDisplay:10.37,2013-07-07 08:51:00,
2013-07-07 01:56:00,52.8,49.6,29.77,SSW,205,3.1,6.9,89,0.00,,,0.00,0.0,WeatherDisplay:10.37,2013-07-07 08:56:00,
2013-07-07 02:01:00,52.8,49.6,29.77,South,169,2.0,3.5,89,0.00,,,0.00,0.0,WeatherDisplay:10.37,2013-07-07 09:01:00,
2013-07-07 02:06:00,52.8,49.6,29.77,South,169,0.4,2.3,89,0.00,,,0.00,0.0,WeatherDisplay:10.37,2013-07-07 09:06:00,
2013-07-07 02:11:00,52.7,49.5,29.77,South,169,0.8,5.8,89,0.00,,,0.00,0.0,WeatherDisplay:10.37,2013-07-07 09:11:00,
2013-07-07 02:16:00,52.7,49.8,29.77,South,191,0.2,1.2,90,0.00,,,0.00,0.0,WeatherDisplay:10.37,2013-07-07 09:16:00,
2013-07-07 02:21:00,52.6,49.8,29.77,SSW,195,2.9,5.8,90,0.00,,,0.00,0.0,WeatherDisplay:10.37,2013-07-07 09:21:00,
2013-07-07 02:26:00,52.6,49.8,29.77,SSW,194,0.2,3.5,90,0.00,,,0.00,0.0,WeatherDisplay:10.37,2013-07-07 09:26:00,
2013-07-07 02:31:00,52.6,49.8,29.77,SSW,198,0.3,3.5,90,0.00,,,0.00,0.0,WeatherDisplay:10.37,2013-07-07 09:31:00,
2013-07-07 02:36:00,52.6,49.8,29.78,SW,224,2.2,3.5,90,0.00,,,0.00,0.0,WeatherDisplay:10.37,2013-07-07 09:36:00,
2013-07-07 02:41:00,52.6,49.8,29.77,West,275,1.5,3.5,90,0.00,,,0.00,0.0,WeatherDisplay:10.37,2013-07-07 09:41:00,
2013-07-07 02:46:00,52.6,49.8,29.77,SSE,167,2.5,9.0,90,0.00,,,0.00,0.0,WeatherDisplay:10.37,2013-07-07 09:46:00,
2013-07-07 02:51:00,52.6,49.8,29.77,SSW,202,3.2,5.8,90,0.00,,,0.00,0.0,WeatherDisplay:10.37,2013-07-07 09:51:00,
2013-07-07 02:56:00,52.6,49.8,29.77,South,189,2.2,2.3,90,0.00,,,0.00,0.0,WeatherDisplay:10.37,2013-07-07 09:56:00,
2013-07-07 03:01:00,52.6,49.8,29.77,SSW,195,4.0,5.8,90,0.00,,,0.00,0.0,WeatherDisplay:10.37,2013-07-07 10:01:00,
2013-07-07 03:06:00,52.6,49.8,29.77,SW,230,1.7,3.5,90,0.00,,,0.00,0.0,WeatherDisplay:10.37,2013-07-07 10:06:00,
2013-07-07 03:11:00,52.6,49.8,29.77,NW,304,1.9,4.6,90,0.00,,,0.00,0.0,WeatherDisplay:10.37,2013-07-07 10:11:00,
2013-07-07 03:16:00,52.6,49.8,29.77,South,171,0.8,2.3,90,0.00,,,0.00,0.0,WeatherDisplay:10.37,2013-07-07 10:16:00,
2013-07-07 03:21:00,52.6,49.8,29.77,WNW,300,3.3,8.1,90,0.00,,,0.00,0.0,WeatherDisplay:10.37,2013-07-07 10:21:00,
2013-07-07 03:26:00,52.6,49.8,29.77,West,264,0.7,3.5,90,0.00,,,0.00,0.0,WeatherDisplay:10.37,2013-07-07 10:26:00,
2013-07-07 03:31:00,52.5,49.7,29.77,West,276,1.8,2.3,90,0.00,,,0.00,0.0,WeatherDisplay:10.37,2013-07-07 10:31:00,
2013-07-07 03:36:00,52.5,49.7,29.77,ESE,113,0.4,2.3,90,0.00,,,0.00,0.0,WeatherDisplay:10.37,2013-07-07 10:36:00,
2013-07-07 03:41:00,52.5,49.7,29.78,West,265,2.2,6.9,90,0.00,,,0.00,0.0,WeatherDisplay:10.37,2013-07-07 10:41:00,
2013-07-07 03:46:00,52.4,49.6,29.78,WSW,237,1.6,3.5,90,0.00,,,0.00,0.0,WeatherDisplay:10.37,2013-07-07 10:46:00,
2013-07-07 03:51:00,52.2,49.4,29.78,South,184,0.0,0.0,90,0.00,,,0.00,0.0,WeatherDisplay:10.37,2013-07-07 10:51:00,
2013-07-07 03:56:00,52.2,49.4,29.78,SE,139,2.1,4.6,90,0.00,,,0.00,0.0,WeatherDisplay:10.37,2013-07-07 10:56:00,
2013-07-07 04:01:00,52.4,49.6,29.78,South,176,4.4,8.1,90,0.00,,,0.00,0.0,WeatherDisplay:10.37,2013-07-07 11:01:00,
2013-07-07 04:06:00,52.6,50.0,29.78,South,190,0.2,1.2,91,0.00,,,0.00,0.0,WeatherDisplay:10.37,2013-07-07 11:06:00,
2013-07-07 04:11:00,52.6,50.0,29.78,SW,232,3.3,5.8,91,0.00,,,0.00,0.0,WeatherDisplay:10.37,2013-07-07 11:11:00,
2013-07-07 04:16:00,52.6,50.0,29.78,West,264,1.9,3.5,91,0.00,,,0.00,0.0,WeatherDisplay:10.37,2013-07-07 11:16:00,
2013-07-07 04:21:00,52.6,50.0,29.78,West,270,0.1,1.2,91,0.00,,,0.00,0.0,WeatherDisplay:10.37,2013-07-07 11:21:00,
2013-07-07 04:26:00,52.8,50.2,29.78,NW,304,4.1,9.2,91,0.00,,,0.00,0.0,WeatherDisplay:10.37,2013-07-07 11:26:00,
2013-07-07 04:31:00,52.7,49.8,29.78,WNW,295,4.1,8.1,90,0.00,,,0.00,0.0,WeatherDisplay:10.37,2013-07-07 11:31:00,
2013-07-07 04:36:00,52.5,49.7,29.78,SSW,194,1.7,5.0,90,0.00,,,0.00,0.0,WeatherDisplay:10.37,2013-07-07 11:36:00,
2013-07-07 04:41:00,52.2,49.4,29.78,South,180,0.6,2.3,90,0.00,,,0.00,0.0,WeatherDisplay:10.37,2013-07-07 11:41:00,
2013-07-07 04:46:00,51.3,48.2,29.78,NNW,338,2.9,3.5,89,0.00,,,0.00,0.0,WeatherDisplay:10.37,2013-07-07 11:46:00,
2013-07-07 04:51:00,51.8,49.0,29.78,SSW,202,1.1,2.3,90,0.00,,,0.00,0.0,WeatherDisplay:10.37,2013-07-07 11:51:00,
2013-07-07 04:56:00,52.0,49.2,29.78,NW,310,2.4,5.8,90,0.00,,,0.00,0.0,WeatherDisplay:10.37,2013-07-07 11:56:00,
2013-07-07 05:01:00,52.1,49.3,29.78,WNW,298,0.5,4.6,90,0.00,,,0.00,0.0,WeatherDisplay:10.37,2013-07-07 12:01:00,
2013-07-07 05:06:00,51.3,48.2,29.78,NW,307,3.0,3.0,89,0.00,,,0.00,0.0,WeatherDisplay:10.37,2013-07-07 12:06:00,
2013-07-07 05:11:00,51.3,48.2,29.79,NW,306,0.9,2.3,89,0.00,,,0.00,0.0,WeatherDisplay:10.37,2013-07-07 12:11:00,
2013-07-07 05:16:00,50.9,48.1,29.79,WNW,288,2.9,6.9,90,0.00,,,0.00,0.0,WeatherDisplay:10.37,2013-07-07 12:16:00,
2013-07-07 05:21:00,51.6,49.1,29.79,WNW,292,2.1,4.6,91,0.00,,,0.00,0.0,WeatherDisplay:10.37,2013-07-07 12:21:00,
2013-07-07 05:26:00,51.9,49.1,29.79,SSE,150,0.5,2.3,90,0.00,,,0.00,0.0,WeatherDisplay:10.37,2013-07-07 12:26:00,
2013-07-07 05:31:00,51.2,48.1,29.79,SE,124,2.0,2.3,89,0.00,,,0.00,0.0,WeatherDisplay:10.37,2013-07-07 12:31:00,
2013-07-07 05:36:00,51.1,48.3,29.79,NW,306,1.5,2.3,90,0.00,,,0.00,0.0,WeatherDisplay:10.37,2013-07-07 12:36:00,
2013-07-07 05:41:00,51.1,48.3,29.79,South,179,0.1,3.5,90,0.00,,,0.00,0.0,WeatherDisplay:10.37,2013-07-07 12:41:00,
2013-07-07 05:46:00,51.7,48.9,29.79,West,265,2.1,5.8,90,0.00,,,0.00,0.0,WeatherDisplay:10.37,2013-07-07 12:46:00,
2013-07-07 05:51:00,52.0,49.2,29.79,WNW,285,3.1,10.4,90,0.00,,,0.00,0.0,WeatherDisplay:10.37,2013-07-07 12:51:00,
2013-07-07 05:56:00,52.2,49.4,29.79,WSW,248,1.9,6.9,90,0.00,,,0.00,0.0,WeatherDisplay:10.37,2013-07-07 12:56:00,
2013-07-07 06:01:00,52.5,49.7,29.80,WSW,250,1.2,3.5,90,0.00,,,0.00,0.0,WeatherDisplay:10.37,2013-07-07 13:01:00,
2013-07-07 06:07:00,52.6,49.8,29.80,East,101,3.7,6.0,90,0.00,,,0.00,0.0,WeatherDisplay:10.37,2013-07-07 13:07:00,
2013-07-07 06:12:00,52.1,49.0,29.80,SSE,147,0.3,1.2,89,0.00,,,0.00,5.0,WeatherDisplay:10.37,2013-07-07 13:12:00,
2013-07-07 06:17:00,51.7,48.6,29.80,West,261,0.5,2.3,89,0.00,,,0.00,7.0,WeatherDisplay:10.37,2013-07-07 13:17:00,
2013-07-07 06:22:00,51.9,49.1,29.80,West,273,2.7,4.6,90,0.00,,,0.00,11.0,WeatherDisplay:10.37,2013-07-07 13:22:00,
2013-07-07 06:27:00,52.4,49.6,29.80,SE,146,2.2,3.5,90,0.00,,,0.00,11.0,WeatherDisplay:10.37,2013-07-07 13:27:00,
2013-07-07 06:32:00,52.5,49.4,29.80,WSW,251,0.5,4.6,89,0.00,CLR,,0.00,16.0,WeatherDisplay:10.37,2013-07-07 13:32:00,
2013-07-07 06:37:00,52.0,48.9,29.80,WSW,251,0.0,0.0,89,0.00,CLR,,0.00,19.0,WeatherDisplay:10.37,2013-07-07 13:37:00,
2013-07-07 06:42:00,51.6,48.2,29.80,WSW,253,1.6,3.5,88,0.00,CLR,,0.00,23.0,WeatherDisplay:10.37,2013-07-07 13:42:00,
2013-07-07 06:47:00,51.5,48.1,29.80,North,350,0.2,2.3,88,0.00,FEW,,0.00,25.0,WeatherDisplay:10.37,2013-07-07 13:47:00,
2013-07-07 06:52:00,51.7,48.3,29.81,NNW,348,0.1,2.3,88,0.00,SCT,,0.00,28.0,WeatherDisplay:10.37,2013-07-07 13:52:00,
2013-07-07 06:57:00,52.5,49.4,29.81,South,183,0.0,1.2,89,0.00,SCT,,0.00,35.0,WeatherDisplay:10.37,2013-07-07 13:57:00,
2013-07-07 07:02:00,52.4,48.9,29.81,West,263,0.5,2.3,88,0.00,SCT,,0.00,35.0,WeatherDisplay:10.37,2013-07-07 14:02:00,
2013-07-07 07:07:00,52.8,49.6,29.81,West,263,0.3,2.3,89,0.00,SCT,,0.00,44.0,WeatherDisplay:10.37,2013-07-07 14:07:00,
2013-07-07 07:12:00,53.0,49.8,29.81,South,186,2.3,4.6,89,0.00,BKN,,0.00,44.0,WeatherDisplay:10.37,2013-07-07 14:12:00,
2013-07-07 07:17:00,53.1,49.9,29.81,WNW,292,0.0,1.2,89,0.00,BKN,,0.00,47.0,WeatherDisplay:10.37,2013-07-07 14:17:00,
2013-07-07 07:22:00,53.4,50.2,29.81,South,183,2.4,5.8,89,0.00,BKN,,0.00,69.0,WeatherDisplay:10.37,2013-07-07 14:22:00,
2013-07-07 07:27:00,53.5,50.3,29.81,NW,307,0.7,3.5,89,0.00,BKN,,0.00,67.0,WeatherDisplay:10.37,2013-07-07 14:27:00,
2013-07-07 07:32:00,53.3,49.8,29.81,SSE,168,1.6,4.6,88,0.00,BKN,,0.00,67.0,WeatherDisplay:10.37,2013-07-07 14:32:00,
2013-07-07 07:37:00,53.5,50.0,29.81,South,191,1.4,4.0,88,0.00,SCT,,0.00,83.0,WeatherDisplay:10.37,2013-07-07 14:37:00,
2013-07-07 07:42:00,53.7,50.2,29.81,West,277,1.0,5.0,88,0.00,SCT,,0.00,100.0,WeatherDisplay:10.37,2013-07-07 14:42:00,
2013-07-07 07:47:00,53.7,50.2,29.82,SSW,195,0.7,1.2,88,0.00,SCT,,0.00,102.0,WeatherDisplay:10.37,2013-07-07 14:47:00,
2013-07-07 07:52:00,53.5,49.7,29.82,WNW,292,1.1,3.5,87,0.00,SCT,,0.00,116.0,WeatherDisplay:10.37,2013-07-07 14:52:00,
2013-07-07 07:57:00,53.9,50.4,29.82,South,174,0.5,3.5,88,0.00,SCT,,0.00,128.0,WeatherDisplay:10.37,2013-07-07 14:57:00,
2013-07-07 08:02:00,54.2,50.4,29.82,South,179,1.2,5.8,87,0.00,SCT,,0.00,121.0,WeatherDisplay:10.37,2013-07-07 15:02:00,
2013-07-07 08:07:00,54.6,51.1,29.82,South,180,0.6,3.5,88,0.00,SCT,,0.00,134.0,WeatherDisplay:10.37,2013-07-07 15:07:00,
2013-07-07 08:12:00,54.7,50.9,29.82,SSW,200,0.1,2.3,87,0.00,SCT,,0.00,158.0,WeatherDisplay:10.37,2013-07-07 15:12:00,
2013-07-07 08:17:00,54.8,50.7,29.82,SSE,168,1.5,3.5,86,0.00,BKN,,0.00,137.0,WeatherDisplay:10.37,2013-07-07 15:17:00,
2013-07-07 08:22:00,54.9,50.8,29.82,South,184,2.4,2.4,86,0.00,BKN,,0.00,144.0,WeatherDisplay:10.37,2013-07-07 15:22:00,
2013-07-07 08:27:00,54.9,51.1,29.83,South,187,0.0,1.2,87,0.00,SCT,,0.00,181.0,WeatherDisplay:10.37,2013-07-07 15:27:00,
2013-07-07 08:32:00,55.1,51.0,29.82,South,191,5.3,8.1,86,0.00,SCT,,0.00,197.0,WeatherDisplay:10.37,2013-07-07 15:32:00,
2013-07-07 08:37:00,54.9,50.8,29.83,ENE,57,4.2,6.9,86,0.00,FEW,,0.00,199.0,WeatherDisplay:10.37,2013-07-07 15:37:00,
2013-07-07 08:42:00,54.9,50.8,29.83,South,184,4.0,6.9,86,0.00,CLR,,0.00,214.0,WeatherDisplay:10.37,2013-07-07 15:42:00,
2013-07-07 08:47:00,55.0,50.9,29.83,SSW,203,4.4,6.9,86,0.00,CLR,,0.00,439.0,WeatherDisplay:10.37,2013-07-07 15:47:00,
2013-07-07 08:52:00,55.2,50.8,29.83,South,187,7.9,11.5,85,0.00,FEW,,0.00,304.0,WeatherDisplay:10.37,2013-07-07 15:52:00,
2013-07-07 08:57:00,55.3,51.2,29.83,South,185,9.5,15.0,86,0.00,SCT,,0.00,295.0,WeatherDisplay:10.37,2013-07-07 15:57:00,
2013-07-07 09:02:00,55.3,50.9,29.83,SSW,196,8.0,13.8,85,0.00,CLR,,0.00,686.0,WeatherDisplay:10.37,2013-07-07 16:02:00,
2013-07-07 09:07:00,55.9,51.5,29.83,South,190,5.6,10.4,85,0.00,FEW,,0.00,373.0,WeatherDisplay:10.37,2013-07-07 16:07:00,
2013-07-07 09:12:00,56.1,51.3,29.83,South,172,9.2,15.0,84,0.00,SCT,,0.00,308.0,WeatherDisplay:10.37,2013-07-07 16:12:00,
2013-07-07 09:17:00,56.2,51.4,29.83,South,183,7.8,9.2,84,0.00,CLR,,0.00,675.0,WeatherDisplay:10.37,2013-07-07 16:17:00,
2013-07-07 09:22:00,56.7,51.9,29.83,South,179,6.0,11.5,84,0.00,CLR,,0.00,448.0,WeatherDisplay:10.37,2013-07-07 16:22:00,
2013-07-07 09:27:00,57.0,51.9,29.83,South,184,4.5,10.4,83,0.00,CLR,,0.00,448.0,WeatherDisplay:10.37,2013-07-07 16:27:00,
2013-07-07 09:32:00,57.4,51.9,29.82,South,183,6.7,11.5,82,0.00,CLR,,0.00,698.0,WeatherDisplay:10.37,2013-07-07 16:32:00,
2013-07-07 09:37:00,57.5,52.0,29.82,South,180,4.9,6.9,82,0.00,CLR,,0.00,647.0,WeatherDisplay:10.37,2013-07-07 16:37:00,
2013-07-07 09:42:00,57.3,51.5,29.82,South,188,8.6,13.8,81,0.00,CLR,,0.00,686.0,WeatherDisplay:10.37,2013-07-07 16:42:00,
2013-07-07 09:47:00,58.1,52.6,29.82,South,189,5.6,8.1,82,0.00,CLR,,0.00,684.0,WeatherDisplay:10.37,2013-07-07 16:47:00,
2013-07-07 09:52:00,58.1,52.3,29.82,SW,219,6.0,11.0,81,0.00,CLR,,0.00,705.0,WeatherDisplay:10.37,2013-07-07 16:52:00,
2013-07-07 09:57:00,58.0,52.2,29.82,South,175,1.8,3.5,81,0.00,CLR,,0.00,715.0,WeatherDisplay:10.37,2013-07-07 16:57:00,
2013-07-07 10:02:00,58.4,52.3,29.82,South,188,6.6,11.5,80,0.00,CLR,,0.00,726.0,WeatherDisplay:10.37,2013-07-07 17:02:00,
2013-07-07 10:07:00,59.1,52.9,29.82,SSW,209,6.9,10.4,80,0.00,CLR,,0.00,738.0,WeatherDisplay:10.37,2013-07-07 17:07:00,
2013-07-07 10:12:00,59.3,52.8,29.82,South,178,3.3,8.1,79,0.00,CLR,,0.00,754.0,WeatherDisplay:10.37,2013-07-07 17:12:00,
2013-07-07 10:17:00,59.6,52.7,29.82,South,190,4.5,6.9,78,0.00,CLR,,0.00,763.0,WeatherDisplay:10.37,2013-07-07 17:17:00,
2013-07-07 10:22:00,60.1,52.9,29.81,SSW,203,5.8,8.1,77,0.00,CLR,,0.00,779.0,WeatherDisplay:10.37,2013-07-07 17:22:00,
2013-07-07 10:27:00,60.7,53.1,29.81,South,190,5.3,6.9,76,0.00,CLR,,0.00,751.0,WeatherDisplay:10.37,2013-07-07 17:27:00,
2013-07-07 10:32:00,60.9,52.9,29.81,SSW,192,4.4,8.1,75,0.00,CLR,,0.00,803.0,WeatherDisplay:10.37,2013-07-07 17:32:00,
2013-07-07 10:37:00,62.0,53.6,29.82,South,178,3.5,6.9,74,0.00,CLR,,0.00,817.0,WeatherDisplay:10.37,2013-07-07 17:37:00,
2013-07-07 10:42:00,61.4,53.0,29.81,SSW,194,5.5,6.9,74,0.00,CLR,,0.00,828.0,WeatherDisplay:10.37,2013-07-07 17:42:00,
2013-07-07 10:47:00,61.5,53.5,29.82,SSE,152,2.1,3.5,75,0.00,CLR,,0.00,837.0,WeatherDisplay:10.37,2013-07-07 17:47:00,
2013-07-07 10:52:00,62.3,53.9,29.82,South,176,3.0,6.9,74,0.00,CLR,,0.00,844.0,WeatherDisplay:10.37,2013-07-07 17:52:00,
2013-07-07 10:57:00,63.0,53.4,29.82,South,190,5.9,9.2,71,0.00,CLR,,0.00,865.0,WeatherDisplay:10.37,2013-07-07 17:57:00,
2013-07-07 11:02:00,62.8,53.3,29.82,South,186,4.7,8.1,71,0.00,CLR,,0.00,874.0,WeatherDisplay:10.37,2013-07-07 18:02:00,
2013-07-07 11:07:00,63.3,53.7,29.82,South,191,4.7,5.8,71,0.00,CLR,,0.00,884.0,WeatherDisplay:10.37,2013-07-07 18:07:00,
2013-07-07 11:12:00,62.9,53.0,29.82,SSW,192,5.2,6.9,70,0.00,CLR,,0.00,895.0,WeatherDisplay:10.37,2013-07-07 18:12:00,
2013-07-07 11:17:00,63.0,53.1,29.82,South,183,3.4,5.8,70,0.00,CLR,,0.00,884.0,WeatherDisplay:10.37,2013-07-07 18:17:00,
2013-07-07 11:22:00,63.8,53.4,29.82,South,173,3.6,4.6,69,0.00,CLR,,0.00,904.0,WeatherDisplay:10.37,2013-07-07 18:22:00,
2013-07-07 11:27:00,64.2,53.4,29.81,South,180,3.9,6.9,68,0.00,CLR,,0.00,926.0,WeatherDisplay:10.37,2013-07-07 18:27:00,
2013-07-07 11:32:00,64.4,54.0,29.81,SSE,167,3.2,5.8,69,0.00,CLR,,0.00,932.0,WeatherDisplay:10.37,2013-07-07 18:32:00,
2013-07-07 11:37:00,65.1,53.9,29.81,ESE,117,4.3,8.1,67,0.00,CLR,,0.00,942.0,WeatherDisplay:10.37,2013-07-07 18:37:00,
2013-07-07 11:42:00,65.1,53.9,29.81,SSE,150,4.1,5.8,67,0.00,CLR,,0.00,953.0,WeatherDisplay:10.37,2013-07-07 18:42:00,
2013-07-07 11:47:00,65.0,53.8,29.81,ESE,115,3.5,5.8,67,0.00,CLR,,0.00,962.0,WeatherDisplay:10.37,2013-07-07 18:47:00,
2013-07-07 11:52:00,65.0,53.4,29.81,SE,133,3.8,6.9,66,0.00,CLR,,0.00,962.0,WeatherDisplay:10.37,2013-07-07 18:52:00,
2013-07-07 11:57:00,65.2,53.6,29.81,ESE,115,3.7,4.6,66,0.00,CLR,,0.00,976.0,WeatherDisplay:10.37,2013-07-07 18:57:00,
2013-07-07 12:02:00,65.9,54.2,29.81,SE,129,6.1,8.1,66,0.00,CLR,,0.00,970.0,WeatherDisplay:10.37,2013-07-07 19:02:00,
2013-07-07 12:07:00,65.5,54.2,29.81,SE,128,5.4,10.4,67,0.00,CLR,,0.00,986.0,WeatherDisplay:10.37,2013-07-07 19:07:00,
2013-07-07 12:12:00,65.3,53.6,29.81,ESE,119,4.1,8.1,66,0.00,CLR,,0.00,954.0,WeatherDisplay:10.37,2013-07-07 19:12:00,
2013-07-07 12:17:00,65.6,53.9,29.81,SE,142,4.3,5.8,66,0.00,CLR,,0.00,954.0,WeatherDisplay:10.37,2013-07-07 19:17:00,
2013-07-07 12:23:00,65.6,53.9,29.81,SSE,155,3.5,4.6,66,0.00,CLR,,0.00,991.0,WeatherDisplay:10.37,2013-07-07 19:23:00,
2013-07-07 12:28:00,65.9,54.2,29.81,SSE,166,3.5,4.6,66,0.00,CLR,,0.00,1011.0,WeatherDisplay:10.37,2013-07-07 19:28:00,
2013-07-07 12:33:00,66.3,54.2,29.81,ESE,119,7.0,11.5,65,0.00,CLR,,0.00,970.0,WeatherDisplay:10.37,2013-07-07 19:33:00,
2013-07-07 12:38:00,66.1,54.4,29.81,SE,144,5.0,8.1,66,0.00,CLR,,0.00,1013.0,WeatherDisplay:10.37,2013-07-07 19:38:00,
2013-07-07 12:43:00,66.4,54.3,29.81,SSE,155,3.9,5.8,65,0.00,CLR,,0.00,1013.0,WeatherDisplay:10.37,2013-07-07 19:43:00,
2013-07-07 12:48:00,66.7,54.1,29.81,South,191,4.7,9.2,64,0.00,CLR,,0.00,1014.0,WeatherDisplay:10.37,2013-07-07 19:48:00,
2013-07-07 12:53:00,66.9,53.9,29.80,South,187,0.9,3.5,63,0.00,CLR,,0.00,1025.0,WeatherDisplay:10.37,2013-07-07 19:53:00,
2013-07-07 12:58:00,68.2,55.1,29.80,South,184,2.9,3.5,63,0.00,CLR,,0.00,1030.0,WeatherDisplay:10.37,2013-07-07 19:58:00,
2013-07-07 13:03:00,68.7,55.2,29.80,ESE,123,3.6,8.1,62,0.00,CLR,,0.00,1023.0,WeatherDisplay:10.37,2013-07-07 20:03:00,
2013-07-07 13:08:00,68.6,55.1,29.80,SSE,148,2.3,6.9,62,0.00,CLR,,0.00,1035.0,WeatherDisplay:10.37,2013-07-07 20:08:00,
2013-07-07 13:13:00,68.8,55.2,29.79,SSE,165,3.2,8.1,62,0.00,CLR,,0.00,1025.0,WeatherDisplay:10.37,2013-07-07 20:13:00,
2013-07-07 13:18:00,69.2,55.2,29.79,ESE,117,3.2,6.9,61,0.00,CLR,,0.00,1035.0,WeatherDisplay:10.37,2013-07-07 20:18:00,
2013-07-07 13:23:00,69.3,54.8,29.79,ESE,119,4.5,6.9,60,0.00,CLR,,0.00,1035.0,WeatherDisplay:10.37,2013-07-07 20:23:00,
2013-07-07 13:28:00,69.0,55.0,29.79,South,183,3.6,4.6,61,0.00,CLR,,0.00,1032.0,WeatherDisplay:10.37,2013-07-07 20:28:00,
2013-07-07 13:33:00,70.0,55.5,29.79,South,171,4.4,8.1,60,0.00,CLR,,0.00,1034.0,WeatherDisplay:10.37,2013-07-07 20:33:00,
2013-07-07 13:38:00,70.2,55.2,29.79,ESE,105,3.3,8.1,59,0.00,CLR,,0.00,1044.0,WeatherDisplay:10.37,2013-07-07 20:38:00,
2013-07-07 13:43:00,69.9,55.4,29.79,SE,132,2.3,3.5,60,0.00,CLR,,0.00,1021.0,WeatherDisplay:10.37,2013-07-07 20:43:00,
2013-07-07 13:48:00,70.5,55.5,29.78,South,186,3.6,3.6,59,0.00,CLR,,0.00,1030.0,WeatherDisplay:10.37,2013-07-07 20:48:00,
2013-07-07 13:53:00,70.6,55.1,29.79,South,169,6.4,6.9,58,0.00,CLR,,0.00,1025.0,WeatherDisplay:10.37,2013-07-07 20:53:00,
2013-07-07 13:58:00,72.0,55.9,29.78,South,181,3.4,7.0,57,0.00,CLR,,0.00,1021.0,WeatherDisplay:10.37,2013-07-07 20:58:00,
2013-07-07 14:03:00,71.3,55.3,29.78,SE,126,2.8,3.5,57,0.00,CLR,,0.00,1020.0,WeatherDisplay:10.37,2013-07-07 21:03:00,
2013-07-07 14:08:00,72.6,56.0,29.78,SE,132,1.9,3.5,56,0.00,CLR,,0.00,1014.0,WeatherDisplay:10.37,2013-07-07 21:08:00,
2013-07-07 14:13:00,71.9,55.8,29.78,ESE,117,3.5,3.5,57,0.00,CLR,,0.00,1011.0,WeatherDisplay:10.37,2013-07-07 21:13:00,
2013-07-07 14:18:00,71.5,55.5,29.78,ESE,118,3.7,4.6,57,0.00,CLR,,0.00,1011.0,WeatherDisplay:10.37,2013-07-07 21:18:00,
2013-07-07 14:23:00,71.3,55.8,29.78,SSE,153,2.0,8.1,58,0.00,CLR,,0.00,1004.0,WeatherDisplay:10.37,2013-07-07 21:23:00,
2013-07-07 14:28:00,72.1,56.0,29.78,South,188,4.0,4.0,57,0.00,CLR,,0.00,997.0,WeatherDisplay:10.37,2013-07-07 21:28:00,
2013-07-07 14:33:00,72.2,56.1,29.77,SSE,147,2.3,4.6,57,0.00,CLR,,0.00,997.0,WeatherDisplay:10.37,2013-07-07 21:33:00,
2013-07-07 14:38:00,71.4,55.4,29.77,SSE,167,3.1,5.8,57,0.00,CLR,,0.00,988.0,WeatherDisplay:10.37,2013-07-07 21:38:00,
2013-07-07 14:43:00,70.4,54.4,29.77,ESE,123,3.9,5.8,57,0.00,CLR,,0.00,981.0,WeatherDisplay:10.37,2013-07-07 21:43:00,
2013-07-07 14:48:00,69.7,54.7,29.77,ESE,117,4.2,7.0,59,0.00,CLR,,0.00,976.0,WeatherDisplay:10.37,2013-07-07 21:48:00,
2013-07-07 14:53:00,70.2,55.2,29.77,South,189,4.1,8.1,59,0.00,CLR,,0.00,965.0,WeatherDisplay:10.37,2013-07-07 21:53:00,
2013-07-07 14:58:00,71.4,55.9,29.77,SSW,199,3.0,3.5,58,0.00,CLR,,0.00,956.0,WeatherDisplay:10.37,2013-07-07 21:58:00,
2013-07-07 15:03:00,70.6,55.6,29.77,ESE,118,3.5,5.8,59,0.00,CLR,,0.00,953.0,WeatherDisplay:10.37,2013-07-07 22:03:00,
2013-07-07 15:08:00,70.3,55.3,29.77,SSE,153,3.3,6.9,59,0.00,CLR,,0.00,940.0,WeatherDisplay:10.37,2013-07-07 22:08:00,
2013-07-07 15:13:00,70.0,55.5,29.77,South,169,2.0,5.8,60,0.00,CLR,,0.00,932.0,WeatherDisplay:10.37,2013-07-07 22:13:00,
2013-07-07 15:18:00,69.8,54.8,29.77,South,169,4.4,4.6,59,0.00,CLR,,0.00,918.0,WeatherDisplay:10.37,2013-07-07 22:18:00,
2013-07-07 15:23:00,69.1,55.1,29.77,SSE,159,5.2,10.4,61,0.00,CLR,,0.00,909.0,WeatherDisplay:10.37,2013-07-07 22:23:00,
2013-07-07 15:28:00,68.6,54.2,29.77,SSE,148,6.4,6.9,60,0.00,CLR,,0.00,902.0,WeatherDisplay:10.37,2013-07-07 22:28:00,
2013-07-07 15:33:00,69.3,55.3,29.77,South,178,6.1,8.1,61,0.00,CLR,,0.00,888.0,WeatherDisplay:10.37,2013-07-07 22:33:00,
2013-07-07 15:38:00,68.8,54.3,29.77,South,174,4.8,6.9,60,0.00,CLR,,0.00,879.0,WeatherDisplay:10.37,2013-07-07 22:38:00,
2013-07-07 15:43:00,69.3,54.8,29.77,South,176,6.7,10.0,60,0.00,CLR,,0.00,867.0,WeatherDisplay:10.37,2013-07-07 22:43:00,
2013-07-07 15:48:00,70.2,54.2,29.76,South,169,6.1,9.2,57,0.00,CLR,,0.00,854.0,WeatherDisplay:10.37,2013-07-07 22:48:00,
2013-07-07 15:53:00,71.0,54.0,29.76,South,190,6.3,9.2,55,0.00,CLR,,0.00,847.0,WeatherDisplay:10.37,2013-07-07 22:53:00,
2013-07-07 15:58:00,70.8,54.3,29.76,SSE,167,3.9,4.6,56,0.00,CLR,,0.00,835.0,WeatherDisplay:10.37,2013-07-07 22:58:00,
2013-07-07 16:03:00,70.2,54.2,29.76,SSE,165,3.5,5.8,57,0.00,CLR,,0.00,821.0,WeatherDisplay:10.37,2013-07-07 23:03:00,
2013-07-07 16:08:00,70.6,54.1,29.76,SE,135,1.9,3.5,56,0.00,CLR,,0.00,809.0,WeatherDisplay:10.37,2013-07-07 23:08:00,
2013-07-07 16:13:00,70.3,54.8,29.76,South,180,3.5,6.9,58,0.00,CLR,,0.00,800.0,WeatherDisplay:10.37,2013-07-07 23:13:00,
2013-07-07 16:18:00,69.9,54.9,29.76,SSE,167,3.0,3.5,59,0.00,CLR,,0.00,784.0,WeatherDisplay:10.37,2013-07-07 23:18:00,
2013-07-07 16:23:00,70.3,53.9,29.76,SE,136,5.0,8.1,56,0.00,CLR,,0.00,770.0,WeatherDisplay:10.37,2013-07-07 23:23:00,
2013-07-07 16:28:00,71.1,55.1,29.76,South,186,4.6,6.9,57,0.00,CLR,,0.00,758.0,WeatherDisplay:10.37,2013-07-07 23:28:00,
2013-07-07 16:33:00,70.8,54.3,29.75,SSE,166,5.1,6.9,56,0.00,CLR,,0.00,738.0,WeatherDisplay:10.37,2013-07-07 23:33:00,
2013-07-07 16:38:00,70.6,55.1,29.75,SSE,156,4.6,9.2,58,0.00,CLR,,0.00,728.0,WeatherDisplay:10.37,2013-07-07 23:38:00,
2013-07-07 16:43:00,70.2,54.2,29.75,SSE,149,4.5,4.6,57,0.00,CLR,,0.00,710.0,WeatherDisplay:10.37,2013-07-07 23:43:00,
2013-07-07 16:48:00,69.2,54.7,29.75,SSE,154,4.0,5.8,60,0.00,CLR,,0.00,694.0,WeatherDisplay:10.37,2013-07-07 23:48:00,
2013-07-07 16:53:00,69.6,54.2,29.75,SE,137,3.3,4.6,58,0.00,CLR,,0.00,677.0,WeatherDisplay:10.37,2013-07-07 23:53:00,
2013-07-07 16:58:00,70.1,54.6,29.75,SSE,156,1.3,3.5,58,0.00,CLR,,0.00,663.0,WeatherDisplay:10.37,2013-07-07 23:58:00,
2013-07-07 17:03:00,71.5,55.5,29.75,SSE,157,1.4,3.5,57,0.00,CLR,,0.00,647.0,WeatherDisplay:10.37,2013-07-08 00:03:00,
2013-07-07 17:08:00,71.7,54.7,29.75,South,173,1.8,6.9,55,0.00,CLR,,0.00,629.0,WeatherDisplay:10.37,2013-07-08 00:08:00,
2013-07-07 17:13:00,72.3,53.7,29.75,South,187,2.9,4.6,52,0.00,CLR,,0.00,615.0,WeatherDisplay:10.37,2013-07-08 00:13:00,
2013-07-07 17:18:00,72.5,53.3,29.75,South,182,2.9,3.5,51,0.00,CLR,,0.00,601.0,WeatherDisplay:10.37,2013-07-08 00:18:00,
2013-07-07 17:23:00,72.9,52.6,29.75,SSE,157,3.9,8.1,49,0.00,CLR,,0.00,582.0,WeatherDisplay:10.37,2013-07-08 00:23:00,
2013-07-07 17:28:00,73.1,52.8,29.75,South,186,3.6,5.8,49,0.00,CLR,,0.00,566.0,WeatherDisplay:10.37,2013-07-08 00:28:00,
2013-07-07 17:33:00,73.1,52.8,29.75,SSW,207,2.4,3.5,49,0.00,CLR,,0.00,550.0,WeatherDisplay:10.37,2013-07-08 00:33:00,
2013-07-07 17:38:00,73.5,52.0,29.75,South,179,1.9,3.5,47,0.00,CLR,,0.00,534.0,WeatherDisplay:10.37,2013-07-08 00:38:00,
2013-07-07 17:43:00,73.5,52.6,29.75,SE,128,1.0,6.9,48,0.00,CLR,,0.00,519.0,WeatherDisplay:10.37,2013-07-08 00:43:00,
2013-07-07 17:49:00,72.1,54.0,29.75,SSE,163,2.7,3.5,53,0.00,CLR,,0.00,496.0,WeatherDisplay:10.37,2013-07-08 00:49:00,
2013-07-07 17:54:00,71.1,53.6,29.75,SE,129,1.4,4.6,54,0.00,CLR,,0.00,478.0,WeatherDisplay:10.37,2013-07-08 00:54:00,
2013-07-07 17:59:00,71.9,53.3,29.75,NE,40,1.8,3.5,52,0.00,CLR,,0.00,459.0,WeatherDisplay:10.37,2013-07-08 00:59:00,
2013-07-07 18:04:00,72.3,52.6,29.75,SE,134,2.2,3.5,50,0.00,CLR,,0.00,445.0,WeatherDisplay:10.37,2013-07-08 01:04:00,
2013-07-07 18:09:00,71.6,52.5,29.75,SW,227,1.0,4.6,51,0.00,CLR,,0.00,422.0,WeatherDisplay:10.37,2013-07-08 01:09:00,
2013-07-07 18:14:00,71.3,52.8,29.75,SSW,192,1.3,5.8,52,0.00,CLR,,0.00,404.0,WeatherDisplay:10.37,2013-07-08 01:14:00,
2013-07-07 18:19:00,70.6,52.1,29.75,SSW,202,2.7,6.9,52,0.00,FEW,,0.00,385.0,WeatherDisplay:10.37,2013-07-08 01:19:00,
2013-07-07 18:24:00,70.0,53.1,29.75,ESE,119,0.6,2.3,55,0.00,FEW,,0.00,369.0,WeatherDisplay:10.37,2013-07-08 01:24:00,
2013-07-07 18:29:00,69.7,52.8,29.75,South,180,2.2,3.5,55,0.00,FEW,,0.00,350.0,WeatherDisplay:10.37,2013-07-08 01:29:00,
2013-07-07 18:34:00,69.5,52.6,29.75,South,179,3.4,3.5,55,0.00,FEW,,0.00,330.0,WeatherDisplay:10.37,2013-07-08 01:34:00,
2013-07-07 18:39:00,69.7,53.3,29.75,South,178,0.3,2.3,56,0.00,FEW,,0.00,313.0,WeatherDisplay:10.37,2013-07-08 01:39:00,
2013-07-07 18:44:00,70.2,53.3,29.76,West,281,0.4,2.0,55,0.00,FEW,,0.00,295.0,WeatherDisplay:10.37,2013-07-08 01:44:00,
2013-07-07 18:49:00,69.4,53.0,29.76,South,173,1.2,3.0,56,0.00,FEW,,0.00,279.0,WeatherDisplay:10.37,2013-07-08 01:49:00,
2013-07-07 18:54:00,68.4,53.0,29.76,SSE,155,2.1,4.0,58,0.00,FEW,,0.00,260.0,WeatherDisplay:10.37,2013-07-08 01:54:00,
2013-07-07 18:59:00,67.7,52.9,29.76,SSW,210,1.0,6.9,59,0.00,FEW,,0.00,241.0,WeatherDisplay:10.37,2013-07-08 01:59:00,
2013-07-07 19:04:00,67.0,52.2,29.76,South,169,1.5,3.5,59,0.00,SCT,,0.00,218.0,WeatherDisplay:10.37,2013-07-08 02:04:00,
2013-07-07 19:09:00,66.6,51.8,29.76,South,171,0.4,3.5,59,0.00,SCT,,0.00,204.0,WeatherDisplay:10.37,2013-07-08 02:09:00,
2013-07-07 19:11:00,66.5,51.7,29.76,South,174,1.7,2.3,59,0.00,SCT,,0.00,192.0,WeatherDisplay:10.37,2013-07-08 02:11:00,
2013-07-07 19:16:00,66.0,51.3,29.76,SSW,197,4.2,6.9,59,0.00,SCT,,0.00,172.0,WeatherDisplay:10.37,2013-07-08 02:16:00,
2013-07-07 19:21:00,65.5,51.2,29.76,South,182,2.9,4.6,60,0.00,SCT,,0.00,151.0,WeatherDisplay:10.37,2013-07-08 02:21:00,
2013-07-07 19:26:00,65.1,50.9,29.77,South,187,4.2,9.2,60,0.00,BKN,,0.00,25.0,WeatherDisplay:10.37,2013-07-08 02:26:00,
2013-07-07 19:31:00,64.7,51.4,29.77,South,181,1.2,3.0,62,0.00,BKN,,0.00,23.0,WeatherDisplay:10.37,2013-07-08 02:31:00,
2013-07-07 19:36:00,64.3,51.0,29.77,South,182,3.2,4.6,62,0.00,BKN,,0.00,21.0,WeatherDisplay:10.37,2013-07-08 02:36:00,
2013-07-07 19:41:00,63.9,51.1,29.77,South,182,2.8,4.6,63,0.00,BKN,,0.00,19.0,WeatherDisplay:10.37,2013-07-08 02:41:00,
2013-07-07 19:46:00,63.4,51.0,29.77,South,189,2.5,4.6,64,0.00,BKN,,0.00,18.0,WeatherDisplay:10.37,2013-07-08 02:46:00,
2013-07-07 19:51:00,62.8,50.4,29.77,WSW,245,2.0,3.5,64,0.00,BKN,,0.00,16.0,WeatherDisplay:10.37,2013-07-08 02:51:00,
2013-07-07 19:56:00,62.3,50.4,29.77,South,188,5.3,9.2,65,0.00,BKN,,0.00,16.0,WeatherDisplay:10.37,2013-07-08 02:56:00,
2013-07-07 20:01:00,61.8,50.3,29.78,SSE,155,2.7,6.9,66,0.00,BKN,,0.00,14.0,WeatherDisplay:10.37,2013-07-08 03:01:00,
2013-07-07 20:06:00,61.4,50.3,29.78,South,188,2.4,4.6,67,0.00,BKN,,0.00,12.0,WeatherDisplay:10.37,2013-07-08 03:06:00,
2013-07-07 20:11:00,61.2,50.6,29.78,South,191,3.5,6.9,68,0.00,BKN,,0.00,12.0,WeatherDisplay:10.37,2013-07-08 03:11:00,
2013-07-07 20:16:00,60.9,50.7,29.78,South,191,3.4,3.5,69,0.00,BKN,,0.00,11.0,WeatherDisplay:10.37,2013-07-08 03:16:00,
2013-07-07 20:21:00,60.5,50.3,29.79,South,191,1.9,6.9,69,0.00,BKN,,0.00,9.0,WeatherDisplay:10.37,2013-07-08 03:21:00,
2013-07-07 20:26:00,60.0,50.2,29.79,SSW,192,2.5,5.8,70,0.00,BKN,,0.00,7.0,WeatherDisplay:10.37,2013-07-08 03:26:00,
2013-07-07 20:31:00,59.7,50.3,29.79,SSW,192,0.9,3.5,71,0.00,BKN,,0.00,5.0,WeatherDisplay:10.37,2013-07-08 03:31:00,
2013-07-07 20:36:00,59.4,50.0,29.79,SSW,192,0.8,2.3,71,0.00,,,0.00,0.0,WeatherDisplay:10.37,2013-07-08 03:36:00,
2013-07-07 20:41:00,59.2,50.2,29.80,SSW,192,0.4,3.5,72,0.00,,,0.00,0.0,WeatherDisplay:10.37,2013-07-08 03:41:00,
2013-07-07 20:46:00,59.0,50.0,29.79,SSW,192,0.9,2.3,72,0.00,,,0.00,0.0,WeatherDisplay:10.37,2013-07-08 03:46:00,
2013-07-07 20:51:00,58.7,50.1,29.80,SSW,192,2.2,3.5,73,0.00,,,0.00,0.0,WeatherDisplay:10.37,2013-07-08 03:51:00,
2013-07-07 20:56:00,58.5,49.9,29.80,SSW,193,2.0,3.5,73,0.00,,,0.00,0.0,WeatherDisplay:10.37,2013-07-08 03:56:00,
2013-07-07 21:01:00,58.3,50.0,29.80,SSW,193,3.0,3.5,74,0.00,,,0.00,0.0,WeatherDisplay:10.37,2013-07-08 04:01:00,
2013-07-07 21:02:00,58.3,50.0,29.80,SSW,193,1.2,3.5,74,0.00,,,0.00,0.0,WeatherDisplay:10.37,2013-07-08 04:02:00,
2013-07-07 21:03:00,58.3,50.0,29.80,SSW,193,0.7,2.3,74,0.00,,,0.00,0.0,WeatherDisplay:10.37,2013-07-08 04:03:00,
2013-07-07 21:04:00,58.3,50.0,29.80,SSW,193,0.7,2.3,74,0.00,,,0.00,0.0,WeatherDisplay:10.37,2013-07-08 04:04:00,
2013-07-07 21:09:00,58.1,49.9,29.80,SSW,193,1.6,3.5,74,0.00,,,0.00,0.0,WeatherDisplay:10.37,2013-07-08 04:09:00,
2013-07-07 21:14:00,58.0,50.1,29.81,SSW,192,0.1,1.2,75,0.00,,,0.00,0.0,WeatherDisplay:10.37,2013-07-08 04:14:00,
2013-07-07 21:19:00,57.8,49.9,29.81,SSW,192,0.0,0.0,75,0.00,,,0.00,0.0,WeatherDisplay:10.37,2013-07-08 04:19:00,
2013-07-07 21:24:00,57.6,49.7,29.81,SSW,193,1.2,2.3,75,0.00,,,0.00,0.0,WeatherDisplay:10.37,2013-07-08 04:24:00,
2013-07-07 21:29:00,57.3,49.8,29.81,SSW,193,3.3,3.5,76,0.00,,,0.00,0.0,WeatherDisplay:10.37,2013-07-08 04:29:00,
2013-07-07 21:34:00,57.1,49.6,29.82,SSW,193,1.7,3.5,76,0.00,,,0.00,0.0,WeatherDisplay:10.37,2013-07-08 04:34:00,
2013-07-07 21:39:00,57.0,49.9,29.82,SSW,192,1.4,3.5,77,0.00,,,0.00,0.0,WeatherDisplay:10.37,2013-07-08 04:39:00,
2013-07-07 21:44:00,57.0,49.9,29.82,SSW,193,0.0,1.2,77,0.00,,,0.00,0.0,WeatherDisplay:10.37,2013-07-08 04:44:00,
2013-07-07 21:49:00,56.6,49.8,29.82,SSW,192,0.9,1.2,78,0.00,,,0.00,0.0,WeatherDisplay:10.37,2013-07-08 04:49:00,
2013-07-07 21:54:00,56.5,49.7,29.83,SSW,192,0.3,2.3,78,0.00,,,0.00,0.0,WeatherDisplay:10.37,2013-07-08 04:54:00,
2013-07-07 21:59:00,56.4,50.0,29.83,SSW,193,1.0,2.3,79,0.00,,,0.00,0.0,WeatherDisplay:10.37,2013-07-08 04:59:00,
2013-07-07 22:04:00,56.3,49.9,29.83,SSW,193,0.0,2.3,79,0.00,,,0.00,0.0,WeatherDisplay:10.37,2013-07-08 05:04:00,
2013-07-07 22:09:00,56.1,49.7,29.83,SSW,193,0.7,1.2,79,0.00,,,0.00,0.0,WeatherDisplay:10.37,2013-07-08 05:09:00,
2013-07-07 22:14:00,56.0,49.9,29.83,SSW,193,0.0,0.0,80,0.00,,,0.00,0.0,WeatherDisplay:10.37,2013-07-08 05:14:00,
2013-07-07 22:19:00,55.9,50.2,29.83,SSW,192,0.3,1.2,81,0.00,,,0.00,0.0,WeatherDisplay:10.37,2013-07-08 05:19:00,
2013-07-07 22:24:00,55.7,50.0,29.83,SSW,193,0.0,0.0,81,0.00,,,0.00,0.0,WeatherDisplay:10.37,2013-07-08 05:24:00,
2013-07-07 22:29:00,55.6,49.9,29.83,SSW,192,0.0,0.0,81,0.00,,,0.00,0.0,WeatherDisplay:10.37,2013-07-08 05:29:00,
2013-07-07 22:34:00,55.4,50.0,29.83,SSW,192,1.1,2.3,82,0.00,,,0.00,0.0,WeatherDisplay:10.37,2013-07-08 05:34:00,
2013-07-07 22:39:00,55.2,49.8,29.83,SSW,193,0.1,1.2,82,0.00,,,0.00,0.0,WeatherDisplay:10.37,2013-07-08 05:39:00,
2013-07-07 22:44:00,55.0,49.9,29.83,SSW,192,0.2,1.2,83,0.00,,,0.00,0.0,WeatherDisplay:10.37,2013-07-08 05:44:00,
2013-07-07 22:49:00,54.9,49.8,29.83,SSW,193,0.2,2.3,83,0.00,,,0.00,0.0,WeatherDisplay:10.37,2013-07-08 05:49:00,
2013-07-07 22:54:00,54.9,49.8,29.83,SSW,192,0.0,0.0,83,0.00,,,0.00,0.0,WeatherDisplay:10.37,2013-07-08 05:54:00,
2013-07-07 22:59:00,54.8,49.7,29.83,SSW,192,2.1,2.3,83,0.00,,,0.00,0.0,WeatherDisplay:10.37,2013-07-08 05:59:00,
2013-07-07 23:04:00,54.7,50.0,29.84,SSW,192,0.8,1.2,84,0.00,,,0.00,0.0,WeatherDisplay:10.37,2013-07-08 06:04:00,
2013-07-07 23:09:00,54.7,50.0,29.84,SSW,192,0.0,0.0,84,0.00,,,0.00,0.0,WeatherDisplay:10.37,2013-07-08 06:09:00,
2013-07-07 23:14:00,54.6,49.9,29.84,SSW,193,1.3,3.5,84,0.00,,,0.00,0.0,WeatherDisplay:10.37,2013-07-08 06:14:00,
2013-07-07 23:19:00,54.4,49.7,29.84,SSW,193,0.1,3.5,84,0.00,,,0.00,0.0,WeatherDisplay:10.37,2013-07-08 06:19:00,
2013-07-07 23:24:00,54.2,49.8,29.84,SSW,193,0.0,1.2,85,0.00,,,0.00,0.0,WeatherDisplay:10.37,2013-07-08 06:24:00,
2013-07-07 23:29:00,54.1,49.7,29.84,SSW,193,0.1,1.0,85,0.00,,,0.00,0.0,WeatherDisplay:10.37,2013-07-08 06:29:00,
2013-07-07 23:34:00,54.1,50.0,29.84,SSW,192,1.7,3.5,86,0.00,,,0.00,0.0,WeatherDisplay:10.37,2013-07-08 06:34:00,
2013-07-07 23:39:00,54.0,49.9,29.84,SSW,193,0.8,3.5,86,0.00,,,0.00,0.0,WeatherDisplay:10.37,2013-07-08 06:39:00,
2013-07-07 23:44:00,54.0,49.9,29.84,SSW,193,0.5,2.3,86,0.00,,,0.00,0.0,WeatherDisplay:10.37,2013-07-08 06:44:00,
2013-07-07 23:49:00,53.9,49.8,29.84,SSW,192,0.3,1.2,86,0.00,,,0.00,0.0,WeatherDisplay:10.37,2013-07-08 06:49:00,
2013-07-07 23:54:00,53.8,50.0,29.84,West,272,0.2,5.8,87,0.00,,,0.00,0.0,WeatherDisplay:10.37,2013-07-08 06:54:00,
2013-07-07 23:59:00,53.8,50.0,29.84,SW,224,0.1,2.3,87,0.00,,,0.00,0.0,WeatherDisplay:10.37,2013-07-08 06:59:00,